Time;durP1;ratioP1;P1;durP2;ratioP2;P2;SDS_P1;SDS_P2;PMS_P1;PMS_P2;Temp;Humidity;BMP_temperature;BMP_pressure;BME280_temperature;BME280_humidity;BME280_pressure;Samples;Min_cycle;Max_cycle;Signal;HPM_P1;HPM_P2
2022/01/18 00:01:43;;;;;;;1.97;1.50;;;2.60;99.90;;;;;;5071855;28;20212;-84
2022/01/18 00:04:14;;;;;;;3.53;1.77;;;2.60;99.90;;;;;;5071836;28;20225;-84
2022/01/18 00:06:47;;;;;;;4.30;1.30;;;2.60;99.90;;;;;;5072109;28;20306;-85
2022/01/18 00:09:19;;;;;;;3.10;1.58;;;2.60;99.90;;;;;;5071863;28;20232;-85
2022/01/18 00:11:57;;;;;;;1.73;1.23;;;2.60;99.90;;;;;;5072650;28;20227;-84
2022/01/18 00:14:28;;;;;;;2.20;1.63;;;2.60;99.90;;;;;;5071683;28;20247;-84
2022/01/18 00:17:04;;;;;;;3.23;1.97;;;2.60;99.90;;;;;;5071927;28;20221;-85
2022/01/18 00:19:40;;;;;;;2.77;2.10;;;2.60;99.90;;;;;;5071720;28;20205;-84
2022/01/18 00:22:14;;;;;;;2.42;1.48;;;2.60;99.90;;;;;;5072510;28;20216;-85
2022/01/18 00:24:46;;;;;;;3.97;1.67;;;2.50;99.90;;;;;;5072283;28;20266;-85
2022/01/18 00:27:18;;;;;;;2.00;1.57;;;2.50;99.90;;;;;;5072095;28;20221;-85
2022/01/18 00:29:59;;;;;;;8.07;1.77;;;2.50;99.90;;;;;;5071857;28;20208;-85
2022/01/18 00:32:37;;;;;;;3.40;1.47;;;2.50;99.90;;;;;;5072533;28;20283;-85
2022/01/18 00:35:06;;;;;;;2.57;1.27;;;2.50;99.90;;;;;;5072173;28;20263;-85
2022/01/18 00:37:37;;;;;;;31.83;2.37;;;2.40;99.90;;;;;;5071994;28;20201;-85
2022/01/18 00:40:12;;;;;;;2.87;1.67;;;2.40;99.90;;;;;;5072023;28;20213;-85
2022/01/18 00:42:45;;;;;;;2.47;1.50;;;2.30;99.90;;;;;;5072024;28;20209;-85
2022/01/18 00:45:34;;;;;;;2.63;1.60;;;2.40;99.90;;;;;;5070576;28;20287;-85
2022/01/18 00:48:12;;;;;;;3.43;1.97;;;2.30;99.90;;;;;;5076035;28;20213;-84
2022/01/18 00:50:56;;;;;;;7.73;1.63;;;2.30;99.90;;;;;;5073219;28;20205;-85
2022/01/18 00:53:39;;;;;;;2.37;1.73;;;2.30;99.90;;;;;;5076098;28;20208;-85
2022/01/18 00:56:29;;;;;;;2.20;1.40;;;2.30;99.90;;;;;;5075692;28;20402;-85
2022/01/18 00:59:17;;;;;;;4.43;2.00;;;2.30;99.90;;;;;;5065886;28;20215;-85
2022/01/18 01:01:48;;;;;;;2.70;1.50;;;2.30;99.90;;;;;;5075200;28;20207;-85
2022/01/18 01:04:35;;;;;;;3.87;1.60;;;2.40;99.90;;;;;;5075611;28;20231;-86
2022/01/18 01:07:07;;;;;;;13.53;2.10;;;2.40;99.90;;;;;;5075355;28;20233;-86
2022/01/18 01:09:57;;;;;;;1.90;1.70;;;2.30;99.90;;;;;;5075302;28;20220;-85
2022/01/18 01:12:28;;;;;;;6.23;1.97;;;2.30;99.90;;;;;;5075630;28;20254;-86
2022/01/18 01:15:08;;;;;;;4.10;2.20;;;2.30;99.90;;;;;;5075558;28;20263;-86
2022/01/18 01:17:45;;;;;;;11.73;2.63;;;2.30;99.90;;;;;;5075643;28;20201;-86
2022/01/18 01:32:49;;;;;;;16.00;1.93;;;2.30;99.90;;;;;;5075514;28;20207;-85
2022/01/18 01:35:34;;;;;;;2.03;1.53;;;2.30;99.90;;;;;;5075334;28;20225;-85
2022/01/18 01:43:49;;;;;;;1.63;1.30;;;2.30;99.90;;;;;;5075147;28;20308;-85
2022/01/18 01:46:19;;;;;;;1.97;1.33;;;2.40;99.90;;;;;;5074645;28;20216;-85
2022/01/18 01:48:58;;;;;;;3.05;1.42;;;2.40;99.90;;;;;;5074457;28;20262;-85
2022/01/18 01:51:53;;;;;;;2.20;1.60;;;2.40;99.90;;;;;;5074900;28;20258;-85
2022/01/18 01:54:26;;;;;;;3.53;1.73;;;2.40;99.90;;;;;;5074871;28;20222;-85
2022/01/18 01:56:55;;;;;;;2.23;1.57;;;2.40;99.90;;;;;;5074281;28;20201;-85
2022/01/18 01:59:29;;;;;;;3.43;2.10;;;2.40;99.90;;;;;;5074149;28;20209;-85
2022/01/18 02:02:08;;;;;;;4.10;1.87;;;2.40;99.90;;;;;;5074685;28;20225;-85
2022/01/18 02:04:41;;;;;;;1.47;1.30;;;2.40;99.90;;;;;;5074418;28;20224;-85
2022/01/18 02:07:18;;;;;;;1.93;1.40;;;2.40;99.90;;;;;;5074784;28;20249;-84
2022/01/18 02:09:49;;;;;;;5.37;1.50;;;2.40;99.90;;;;;;5074542;28;20201;-85
2022/01/18 02:12:20;;;;;;;2.17;1.80;;;2.40;99.90;;;;;;5074505;28;20292;-84
2022/01/18 02:14:54;;;;;;;10.33;2.20;;;2.40;99.90;;;;;;5074644;28;20233;-85
2022/01/18 02:23:13;;;;;;;4.70;1.93;;;2.40;99.90;;;;;;5074417;28;20324;-85
2022/01/18 02:25:52;;;;;;;1.50;1.23;;;2.40;99.90;;;;;;5074421;28;20236;-84
2022/01/18 02:28:45;;;;;;;3.03;1.87;;;2.30;99.90;;;;;;5073980;28;20232;-85
2022/01/18 02:31:59;;;;;;;4.10;1.70;;;2.30;99.90;;;;;;5074465;28;20254;-85
2022/01/18 02:34:53;;;;;;;1.60;1.50;;;2.30;99.90;;;;;;5073943;28;20224;-85
2022/01/18 02:37:28;;;;;;;9.00;2.22;;;2.30;99.90;;;;;;5068529;28;20239;-85
2022/01/18 02:40:00;;;;;;;2.80;1.57;;;2.30;99.90;;;;;;5073445;28;20239;-85
2022/01/18 02:42:40;;;;;;;4.37;2.20;;;2.30;99.90;;;;;;5074229;28;20269;-85
2022/01/18 02:45:09;;;;;;;5.30;1.67;;;2.30;99.90;;;;;;5074296;28;20224;-85
2022/01/18 02:47:38;;;;;;;3.87;1.90;;;2.30;99.90;;;;;;5073997;28;20312;-85
2022/01/18 02:50:08;;;;;;;6.40;2.23;;;2.30;99.90;;;;;;5073805;28;20205;-85
2022/01/18 02:52:37;;;;;;;4.63;1.90;;;2.30;99.90;;;;;;5073877;28;20201;-84
2022/01/18 02:55:07;;;;;;;3.53;2.47;;;2.30;99.90;;;;;;5073497;28;20248;-85
2022/01/18 02:57:42;;;;;;;2.53;1.90;;;2.30;99.90;;;;;;5073400;28;20273;-85
2022/01/18 03:00:19;;;;;;;12.33;2.30;;;2.30;99.90;;;;;;5073268;28;20212;-84
2022/01/18 03:05:38;;;;;;;2.30;1.40;;;2.10;99.90;;;;;;5072710;28;20235;-85
2022/01/18 03:08:15;;;;;;;3.40;1.90;;;2.20;99.90;;;;;;5073429;28;20332;-84
2022/01/18 03:11:01;;;;;;;3.50;2.10;;;2.10;99.90;;;;;;5072984;28;20212;-84
2022/01/18 03:13:30;;;;;;;5.17;1.87;;;2.10;99.90;;;;;;5073283;28;20209;-84
2022/01/18 03:15:58;;;;;;;1.87;1.47;;;2.10;99.90;;;;;;5073441;28;20245;-84
2022/01/18 03:18:27;;;;;;;6.07;2.10;;;2.00;99.90;;;;;;5072967;28;20269;-84
2022/01/18 03:20:56;;;;;;;5.50;1.60;;;2.10;99.90;;;;;;5072884;28;20232;-84
2022/01/18 03:23:30;;;;;;;3.30;1.70;;;2.00;99.90;;;;;;5073466;28;20221;-83
2022/01/18 03:26:02;;;;;;;1.50;1.40;;;2.10;99.90;;;;;;5073308;28;20278;-83
2022/01/18 03:28:32;;;;;;;2.27;1.53;;;2.10;99.90;;;;;;5072949;28;20221;-84
2022/01/18 03:31:00;;;;;;;9.33;2.10;;;2.20;99.90;;;;;;5072368;28;20228;-83
2022/01/18 03:33:29;;;;;;;1.40;1.27;;;2.10;99.90;;;;;;5072710;28;20239;-83
2022/01/18 03:36:00;;;;;;;2.30;1.30;;;2.10;99.90;;;;;;5072601;28;20308;-83
2022/01/18 03:38:33;;;;;;;2.73;1.67;;;2.10;99.90;;;;;;5072771;28;20201;-84
2022/01/18 03:41:07;;;;;;;1.67;1.37;;;2.10;99.90;;;;;;5072933;28;20208;-83
2022/01/18 03:43:37;;;;;;;2.03;1.50;;;2.10;99.90;;;;;;5072668;28;20209;-83
2022/01/18 03:46:06;;;;;;;20.00;1.93;;;2.10;99.90;;;;;;5072679;28;20239;-84
2022/01/18 03:48:37;;;;;;;5.38;1.60;;;2.10;99.90;;;;;;5072571;28;20221;-83
2022/01/18 03:51:08;;;;;;;2.60;1.60;;;2.10;99.90;;;;;;5072729;28;20233;-84
2022/01/18 03:53:38;;;;;;;2.53;1.67;;;2.10;99.90;;;;;;5072963;28;20205;-84
2022/01/18 03:56:07;;;;;;;3.93;1.50;;;2.10;99.90;;;;;;5072807;28;20236;-83
2022/01/18 03:58:35;;;;;;;3.50;1.70;;;2.00;99.90;;;;;;5072495;28;20201;-83
2022/01/18 04:01:04;;;;;;;1.80;1.40;;;2.00;99.90;;;;;;5072540;28;20268;-84
2022/01/18 04:03:33;;;;;;;4.13;1.57;;;2.00;99.90;;;;;;5072529;28;20200;-83
2022/01/18 04:06:01;;;;;;;1.37;1.27;;;2.00;99.90;;;;;;5072435;28;20232;-84
2022/01/18 04:08:30;;;;;;;6.37;2.03;;;2.00;99.90;;;;;;5072632;28;20212;-83
2022/01/18 04:11:00;;;;;;;2.67;1.70;;;1.90;99.90;;;;;;5071973;28;20221;-84
2022/01/18 04:13:28;;;;;;;1.97;1.63;;;1.90;99.90;;;;;;5072644;28;20204;-84
2022/01/18 04:15:56;;;;;;;3.17;1.67;;;1.90;99.90;;;;;;5072315;28;20307;-83
2022/01/18 04:18:35;;;;;;;2.87;1.60;;;1.90;99.90;;;;;;5071012;28;20224;-84
2022/01/18 04:26:57;;;;;;;3.93;1.20;;;1.80;99.90;;;;;;5072326;28;20296;-84
2022/01/18 04:29:25;;;;;;;2.30;1.60;;;1.80;99.90;;;;;;5071789;28;20229;-84
2022/01/18 04:31:54;;;;;;;4.00;1.67;;;1.80;99.90;;;;;;5072271;28;20215;-83
2022/01/18 04:34:23;;;;;;;1.03;1.00;;;1.90;99.90;;;;;;5072238;28;20243;-84
2022/01/18 04:36:51;;;;;;;25.77;1.33;;;1.90;99.90;;;;;;5072254;28;20202;-84
2022/01/18 04:39:20;;;;;;;3.30;1.50;;;1.90;99.90;;;;;;5071354;28;20196;-84
2022/01/18 04:41:49;;;;;;;5.90;1.87;;;1.90;99.90;;;;;;5071825;28;20258;-84
2022/01/18 04:49:46;;;;;;;2.47;1.33;;;1.90;99.90;;;;;;5071459;28;20308;-84
2022/01/18 04:52:14;;;;;;;1.80;1.50;;;1.90;99.90;;;;;;5078074;28;20212;-89
2022/01/18 04:54:45;;;;;;;5.57;2.00;;;1.90;99.90;;;;;;5092806;28;20240;-83
2022/01/18 05:00:01;;;;;;;2.83;1.40;;;1.90;99.90;;;;;;5072498;28;20303;-83
2022/01/18 05:02:29;;;;;;;3.07;1.67;;;1.90;99.90;;;;;;5072647;28;20294;-83
2022/01/18 05:04:58;;;;;;;22.27;1.97;;;1.90;99.90;;;;;;5072620;28;20232;-83
2022/01/18 05:07:27;;;;;;;2.40;1.70;;;1.90;99.90;;;;;;5072753;28;20255;-83
2022/01/18 05:09:55;;;;;;;1.87;1.50;;;1.90;99.90;;;;;;5071771;28;20245;-83
2022/01/18 05:12:37;;;;;;;3.77;1.70;;;2.00;99.90;;;;;;5072864;28;20232;-83
2022/01/18 05:15:31;;;;;;;1.50;1.40;;;2.00;99.90;;;;;;5072670;28;20336;-84
2022/01/18 05:18:54;;;;;;;3.63;1.87;;;1.90;99.90;;;;;;5072493;28;20229;-83
2022/01/18 05:21:08;;;;;;;2.83;1.70;;;1.90;99.90;;;;;;5072083;28;20212;-83
2022/01/18 05:23:38;;;;;;;3.60;1.73;;;1.90;99.90;;;;;;5072175;28;20269;-83
2022/01/18 05:26:07;;;;;;;2.70;1.60;;;2.00;99.90;;;;;;5072889;28;20404;-83
2022/01/18 05:28:37;;;;;;;4.23;2.13;;;2.00;99.90;;;;;;5071933;28;20289;-83
2022/01/18 05:31:06;;;;;;;1.90;1.37;;;1.90;99.90;;;;;;5075827;28;20215;-84
2022/01/18 05:33:34;;;;;;;7.13;2.17;;;2.00;99.90;;;;;;5076335;28;20205;-83
2022/01/18 05:36:03;;;;;;;4.27;2.03;;;1.90;99.90;;;;;;5076094;28;20229;-83
2022/01/18 05:38:33;;;;;;;4.20;2.67;;;1.90;99.90;;;;;;5078628;28;20221;-83
2022/01/18 05:41:01;;;;;;;4.40;2.27;;;1.90;99.90;;;;;;5075330;28;20221;-83
2022/01/18 05:43:30;;;;;;;5.07;2.07;;;1.80;99.90;;;;;;5076218;28;20201;-83
2022/01/18 05:46:00;;;;;;;2.83;1.90;;;1.80;99.90;;;;;;5075982;28;20229;-83
2022/01/18 05:48:28;;;;;;;1.63;1.53;;;1.70;99.90;;;;;;5076277;28;20209;-84
2022/01/18 05:50:59;;;;;;;7.73;2.10;;;1.80;99.90;;;;;;5075019;28;20229;-83
2022/01/18 05:53:28;;;;;;;2.70;1.77;;;1.80;99.90;;;;;;5077846;28;20193;-83
2022/01/18 05:55:57;;;;;;;5.10;2.17;;;1.70;99.90;;;;;;5077867;28;20233;-83
2022/01/18 05:58:25;;;;;;;6.70;2.50;;;1.70;99.90;;;;;;5076607;28;20221;-83
2022/01/18 06:00:54;;;;;;;4.27;2.07;;;1.70;99.90;;;;;;5089259;28;20193;-83
2022/01/18 06:03:31;;;;;;;5.17;1.83;;;1.70;99.90;;;;;;5083387;28;20197;-83
2022/01/18 06:08:45;;;;;;;3.60;1.83;;;1.70;99.90;;;;;;5078301;28;20280;-83
2022/01/18 06:11:15;;;;;;;2.17;1.83;;;1.60;99.90;;;;;;5077777;28;20562;-83
2022/01/18 06:13:44;;;;;;;3.60;1.90;;;1.70;99.90;;;;;;5083906;28;20258;-83
2022/01/18 06:16:14;;;;;;;7.00;2.87;;;1.70;99.90;;;;;;5082689;28;20205;-83
2022/01/18 06:18:44;;;;;;;5.70;2.40;;;1.70;99.90;;;;;;5080455;28;20193;-83
2022/01/18 06:21:15;;;;;;;3.13;1.70;;;1.60;99.90;;;;;;5090606;28;20292;-83
2022/01/18 06:23:43;;;;;;;6.97;2.27;;;1.60;99.90;;;;;;5090062;28;20216;-83
2022/01/18 06:26:15;;;;;;;4.70;2.00;;;1.60;99.90;;;;;;5077487;28;20232;-83
2022/01/18 06:28:46;;;;;;;3.37;1.97;;;1.60;99.90;;;;;;5088095;28;20225;-83
2022/01/18 06:31:18;;;;;;;4.07;2.20;;;1.60;99.90;;;;;;5093887;28;20193;-83
2022/01/18 06:33:48;;;;;;;7.57;2.03;;;1.60;99.90;;;;;;5094964;28;20205;-83
2022/01/18 06:36:23;;;;;;;4.10;2.77;;;1.60;99.90;;;;;;5093213;28;20205;-83
2022/01/18 06:38:51;;;;;;;6.73;2.40;;;1.60;99.90;;;;;;5080055;28;20284;-83
2022/01/18 06:41:20;;;;;;;7.17;2.63;;;1.70;99.90;;;;;;5091000;28;20204;-83
2022/01/18 06:43:48;;;;;;;3.63;2.00;;;1.70;99.90;;;;;;5080289;28;20246;-83
2022/01/18 06:46:17;;;;;;;4.30;2.30;;;1.70;99.90;;;;;;5095229;28;20285;-83
2022/01/18 06:48:46;;;;;;;2.13;1.90;;;1.70;99.90;;;;;;5082856;28;20222;-83
2022/01/18 06:51:16;;;;;;;6.07;2.70;;;1.80;99.90;;;;;;5092969;28;20200;-83
2022/01/18 06:53:47;;;;;;;5.90;2.60;;;1.80;99.90;;;;;;5081344;28;20273;-83
2022/01/18 06:56:18;;;;;;;2.63;2.10;;;1.80;99.90;;;;;;5075249;28;20209;-83
2022/01/18 06:58:47;;;;;;;5.70;2.40;;;1.80;99.90;;;;;;5076933;28;20266;-84
2022/01/18 07:01:16;;;;;;;4.50;2.17;;;1.90;99.90;;;;;;5093695;28;20224;-83
2022/01/18 07:03:45;;;;;;;2.70;2.20;;;1.90;99.90;;;;;;5078916;28;20269;-83
2022/01/18 07:06:13;;;;;;;3.63;2.10;;;1.90;99.90;;;;;;5088781;28;20257;-83
2022/01/18 07:08:43;;;;;;;4.03;1.97;;;1.90;99.90;;;;;;5087040;28;20287;-84
2022/01/18 07:11:12;;;;;;;2.50;2.00;;;1.90;99.90;;;;;;5093848;28;20196;-83
2022/01/18 07:13:40;;;;;;;4.67;3.07;;;1.90;99.90;;;;;;5090180;28;20225;-83
2022/01/18 07:16:08;;;;;;;5.77;2.60;;;2.00;99.90;;;;;;5073788;28;20280;-83
2022/01/18 07:18:37;;;;;;;6.33;2.30;;;2.10;99.90;;;;;;5089689;28;20322;-83
2022/01/18 07:21:06;;;;;;;3.63;2.20;;;2.10;99.90;;;;;;5081613;28;20221;-84
2022/01/18 07:23:34;;;;;;;4.83;3.10;;;2.10;99.90;;;;;;5090551;28;20201;-83
2022/01/18 07:26:07;;;;;;;4.03;2.50;;;2.20;99.90;;;;;;5079048;28;20225;-84
2022/01/18 07:28:35;;;;;;;3.17;2.10;;;2.10;99.90;;;;;;5076205;28;20284;-83
2022/01/18 07:31:03;;;;;;;5.13;2.57;;;2.20;99.90;;;;;;5086490;28;20216;-83
2022/01/18 07:33:32;;;;;;;4.40;2.67;;;2.20;99.90;;;;;;5066890;28;20281;-83
2022/01/18 07:36:00;;;;;;;3.43;2.20;;;2.20;99.90;;;;;;5085249;28;20221;-83
2022/01/18 07:38:29;;;;;;;6.80;2.97;;;2.30;99.90;;;;;;5073899;28;20205;-83
2022/01/18 07:40:57;;;;;;;4.87;2.67;;;2.30;99.90;;;;;;5076915;28;20296;-83
2022/01/18 07:43:27;;;;;;;5.17;2.53;;;2.40;99.90;;;;;;5073884;28;20282;-83
2022/01/18 07:45:56;;;;;;;2.43;2.10;;;2.40;99.90;;;;;;5072962;28;20217;-83
2022/01/18 07:48:24;;;;;;;27.27;2.80;;;2.40;99.90;;;;;;5072821;28;20205;-83
2022/01/18 07:50:54;;;;;;;4.37;2.33;;;2.40;99.90;;;;;;5072219;28;20330;-84
2022/01/18 07:53:56;;;;;;;9.00;3.03;;;2.40;99.90;;;;;;5072733;28;20216;-83
2022/01/18 07:56:24;;;;;;;3.57;2.47;;;2.40;99.90;;;;;;5073371;28;20284;-83
2022/01/18 07:58:54;;;;;;;6.03;3.60;;;2.40;99.90;;;;;;5072921;28;20220;-82
2022/01/18 08:01:23;;;;;;;7.00;2.37;;;2.50;99.90;;;;;;5071199;28;20279;-83
2022/01/18 08:03:52;;;;;;;3.90;2.33;;;2.50;99.90;;;;;;5072696;28;20254;-83
2022/01/18 08:06:20;;;;;;;4.40;2.53;;;2.60;99.90;;;;;;5072583;28;20201;-83
2022/01/18 08:08:48;;;;;;;3.20;2.60;;;2.60;99.90;;;;;;5072827;28;20224;-84
2022/01/18 08:11:17;;;;;;;4.35;3.20;;;2.60;99.90;;;;;;5072074;28;20220;-83
2022/01/18 08:13:48;;;;;;;2.90;2.27;;;2.60;99.90;;;;;;5072877;28;20201;-83
2022/01/18 08:16:45;;;;;;;7.10;2.63;;;2.60;99.90;;;;;;5072851;28;20228;-83
2022/01/18 08:19:12;;;;;;;4.70;2.60;;;2.70;99.90;;;;;;5072679;28;20322;-83
2022/01/18 08:21:40;;;;;;;6.70;3.15;;;2.70;99.90;;;;;;5072371;28;20216;-83
2022/01/18 08:24:13;;;;;;;6.77;2.97;;;2.70;99.90;;;;;;5072101;28;20225;-83
2022/01/18 08:26:41;;;;;;;3.60;2.50;;;2.80;99.90;;;;;;5073457;28;20200;-83
2022/01/18 08:29:12;;;;;;;4.20;2.35;;;2.80;99.90;;;;;;5072745;28;20205;-83
2022/01/18 08:31:42;;;;;;;4.20;2.85;;;2.90;99.90;;;;;;5072234;28;20240;-83
2022/01/18 08:34:12;;;;;;;3.70;2.58;;;2.90;99.90;;;;;;5072993;28;20308;-83
2022/01/18 08:36:41;;;;;;;2.92;2.40;;;2.90;99.90;;;;;;5072708;28;20229;-83
2022/01/18 08:39:10;;;;;;;4.82;2.65;;;2.90;99.90;;;;;;5071737;28;20308;-82
2022/01/18 08:41:38;;;;;;;3.65;2.80;;;3.00;99.90;;;;;;5072514;28;20249;-82
2022/01/18 08:44:07;;;;;;;6.00;2.63;;;3.00;99.90;;;;;;5071704;28;20204;-84
2022/01/18 08:46:35;;;;;;;6.45;2.88;;;3.10;99.90;;;;;;5072828;28;20200;-83
2022/01/18 08:49:07;;;;;;;3.53;2.27;;;3.10;99.90;;;;;;5072503;28;20205;-83
2022/01/18 08:51:36;;;;;;;13.90;3.47;;;3.20;99.90;;;;;;5072506;28;20213;-84
2022/01/18 08:54:05;;;;;;;8.85;2.45;;;3.20;99.90;;;;;;5071084;28;20208;-84
2022/01/18 08:56:34;;;;;;;2.88;2.42;;;3.20;99.90;;;;;;5071969;28;20204;-82
2022/01/18 08:59:21;;;;;;;6.40;2.45;;;3.30;99.90;;;;;;5072321;28;20220;-84
2022/01/18 09:01:49;;;;;;;7.75;2.30;;;3.30;99.90;;;;;;5072218;28;20202;-83
2022/01/18 09:04:20;;;;;;;4.20;2.20;;;3.40;99.90;;;;;;5086275;28;20248;-83
2022/01/18 09:06:51;;;;;;;6.25;2.67;;;3.40;99.90;;;;;;5076103;28;20205;-84
2022/01/18 09:09:20;;;;;;;12.57;3.00;;;3.50;99.90;;;;;;5076170;28;20291;-84
2022/01/18 09:11:49;;;;;;;6.55;2.08;;;3.50;99.90;;;;;;5075572;28;20212;-83
2022/01/18 09:14:17;;;;;;;5.30;2.50;;;3.60;99.90;;;;;;5076234;28;20260;-83
2022/01/18 09:16:46;;;;;;;6.10;2.92;;;3.60;99.90;;;;;;5075616;28;20213;-84
2022/01/18 09:19:15;;;;;;;3.10;2.28;;;3.60;99.90;;;;;;5074566;28;20213;-89
2022/01/18 09:21:48;;;;;;;6.20;2.47;;;3.70;99.90;;;;;;5076782;28;20261;-84
2022/01/18 09:24:21;;;;;;;4.73;2.80;;;3.70;99.90;;;;;;5075951;28;20307;-84
2022/01/18 09:26:50;;;;;;;5.70;2.88;;;3.70;99.90;;;;;;5076094;28;20226;-84
2022/01/18 09:29:19;;;;;;;4.63;2.28;;;3.80;99.90;;;;;;5075323;28;20322;-84
2022/01/18 09:31:49;;;;;;;5.32;2.50;;;3.90;99.90;;;;;;5075597;28;20259;-83
2022/01/18 09:34:18;;;;;;;3.25;2.08;;;3.90;99.90;;;;;;5076327;28;20225;-84
2022/01/18 09:36:48;;;;;;;5.93;2.47;;;4.00;99.90;;;;;;5074498;28;20193;-84
2022/01/18 09:39:16;;;;;;;10.07;2.65;;;4.00;99.90;;;;;;5074846;28;20186;-84
2022/01/18 09:41:50;;;;;;;4.00;2.22;;;4.10;99.90;;;;;;5074801;28;20247;-83
2022/01/18 09:44:19;;;;;;;4.03;2.15;;;4.10;99.90;;;;;;5075759;28;20247;-84
2022/01/18 09:46:49;;;;;;;2.38;2.05;;;4.20;99.90;;;;;;5075847;28;20209;-84
2022/01/18 09:49:18;;;;;;;3.05;1.98;;;4.20;99.90;;;;;;5074694;28;20224;-84
2022/01/18 09:51:49;;;;;;;5.35;2.47;;;4.30;99.90;;;;;;5073791;28;20255;-84
2022/01/18 09:54:17;;;;;;;4.43;2.67;;;4.40;99.90;;;;;;5075526;28;20220;-84
2022/01/18 09:56:46;;;;;;;5.15;2.65;;;4.40;99.90;;;;;;5074496;28;20201;-84
2022/01/18 09:59:15;;;;;;;4.65;3.05;;;4.50;99.90;;;;;;5073970;28;20197;-84
2022/01/18 10:01:44;;;;;;;2.35;2.00;;;4.60;99.90;;;;;;5072109;28;20197;-84
2022/01/18 10:04:15;;;;;;;8.73;2.72;;;4.60;99.90;;;;;;5075337;28;20221;-84
2022/01/18 10:06:43;;;;;;;4.90;2.63;;;4.60;99.90;;;;;;5074901;28;20201;-84
2022/01/18 10:09:17;;;;;;;3.42;2.20;;;4.60;99.90;;;;;;5074544;28;20231;-84
2022/01/18 10:12:03;;;;;;;4.82;2.33;;;4.70;99.90;;;;;;5075047;28;20217;-84
2022/01/18 10:14:32;;;;;;;4.57;2.35;;;4.80;99.90;;;;;;5075059;28;20252;-84
2022/01/18 10:17:00;;;;;;;4.43;1.80;;;4.90;99.90;;;;;;5074706;28;20209;-84
2022/01/18 10:19:33;;;;;;;3.22;2.45;;;5.10;99.90;;;;;;5074352;28;20205;-84
2022/01/18 10:22:09;;;;;;;3.85;2.33;;;5.10;99.90;;;;;;5074828;28;20217;-84
2022/01/18 10:24:40;;;;;;;2.83;1.98;;;5.30;99.90;;;;;;5074768;28;20292;-84
2022/01/18 10:27:09;;;;;;;3.47;2.17;;;5.60;99.90;;;;;;5074738;28;20194;-84
2022/01/18 10:29:41;;;;;;;4.05;1.75;;;5.80;99.90;;;;;;5073791;28;20288;-84
2022/01/18 10:32:17;;;;;;;5.32;2.40;;;6.00;99.90;;;;;;5074118;28;20236;-84
2022/01/18 10:38:23;;;;;;;4.93;2.30;;;6.70;99.90;;;;;;5072936;28;20204;-86
2022/01/18 10:40:53;;;;;;;4.80;2.33;;;7.20;99.90;;;;;;5056772;28;20243;-84
2022/01/18 10:43:27;;;;;;;3.90;2.47;;;7.30;99.90;;;;;;5065725;28;20197;-84
2022/01/18 10:46:11;;;;;;;3.58;2.03;;;7.50;99.90;;;;;;5074302;28;20228;-83
2022/01/18 10:48:48;;;;;;;2.15;1.95;;;7.30;99.90;;;;;;5069017;28;20203;-84
2022/01/18 10:51:27;;;;;;;5.93;3.15;;;7.60;99.90;;;;;;5070037;28;20213;-83
2022/01/18 10:53:59;;;;;;;2.63;2.05;;;7.60;99.90;;;;;;5074327;28;20264;-84
2022/01/18 10:56:39;;;;;;;3.67;2.13;;;7.80;99.90;;;;;;5073422;28;20335;-82
2022/01/18 10:59:08;;;;;;;7.10;2.78;;;8.20;99.90;;;;;;5074054;28;20196;-83
2022/01/18 11:01:42;;;;;;;4.63;2.20;;;8.60;99.90;;;;;;5074115;28;20247;-84
2022/01/18 11:04:13;;;;;;;4.20;2.63;;;8.30;99.90;;;;;;5074576;28;20237;-84
2022/01/18 11:06:56;;;;;;;3.33;2.47;;;8.20;99.90;;;;;;5073251;28;20205;-84
2022/01/18 11:09:24;;;;;;;5.03;2.60;;;8.00;99.90;;;;;;5073893;28;20283;-84
2022/01/18 11:11:55;;;;;;;4.07;2.35;;;7.90;99.90;;;;;;5073623;28;20247;-82
2022/01/18 11:14:25;;;;;;;8.07;2.70;;;7.70;99.90;;;;;;5074220;28;20236;-84
2022/01/18 11:16:56;;;;;;;6.60;3.03;;;7.60;99.90;;;;;;5074431;28;20209;-84
2022/01/18 11:19:32;;;;;;;4.97;2.33;;;7.30;99.90;;;;;;5073614;28;20273;-84
2022/01/18 11:22:03;;;;;;;4.10;2.25;;;7.00;99.90;;;;;;5073790;28;20231;-84
2022/01/18 11:24:32;;;;;;;2.70;1.90;;;6.60;99.90;;;;;;5073819;28;20228;-83
2022/01/18 11:27:06;;;;;;;5.50;2.45;;;6.50;99.90;;;;;;5073357;28;20212;-84
2022/01/18 11:29:36;;;;;;;6.53;2.78;;;6.70;99.90;;;;;;5073360;28;20227;-84
2022/01/18 11:32:08;;;;;;;2.35;1.92;;;7.20;99.90;;;;;;5073878;28;20309;-77
2022/01/18 11:34:49;;;;;;;3.45;2.28;;;7.90;99.90;;;;;;5073942;28;20213;-79
2022/01/18 11:37:27;;;;;;;5.35;2.50;;;8.10;99.90;;;;;;5073539;28;20228;-78
2022/01/18 11:40:01;;;;;;;3.75;2.00;;;8.20;99.90;;;;;;5073074;28;20202;-84
2022/01/18 11:42:49;;;;;;;5.10;2.22;;;8.60;99.90;;;;;;5073581;28;20201;-84
2022/01/18 11:45:37;;;;;;;3.67;2.08;;;8.90;99.90;;;;;;5072745;28;20244;-85
2022/01/18 11:48:11;;;;;;;4.95;2.33;;;9.20;99.90;;;;;;5072779;28;20216;-85
2022/01/18 11:50:42;;;;;;;3.60;2.90;;;9.40;99.20;;;;;;5071828;28;20293;-84
2022/01/18 11:53:44;;;;;;;4.22;2.25;;;8.80;98.40;;;;;;5072888;28;20216;-84
2022/01/18 11:56:32;;;;;;;2.60;2.30;;;8.40;99.70;;;;;;5072936;28;20236;-85
2022/01/18 11:59:15;;;;;;;5.95;2.70;;;8.20;99.90;;;;;;5072528;28;20221;-84
2022/01/18 12:01:56;;;;;;;9.38;2.88;;;8.20;99.90;;;;;;5072700;28;20232;-84
2022/01/18 12:05:13;;;;;;;5.00;2.17;;;7.50;99.90;;;;;;5070075;28;20221;-85
2022/01/18 12:07:51;;;;;;;4.85;2.75;;;7.50;99.90;;;;;;5056677;28;20254;-85
2022/01/18 12:10:49;;;;;;;6.57;2.30;;;7.60;99.90;;;;;;5072552;28;20205;-85
2022/01/18 12:13:30;;;;;;;4.55;2.88;;;8.20;99.90;;;;;;5072576;28;20277;-84
2022/01/18 12:16:12;;;;;;;3.63;2.40;;;8.70;99.90;;;;;;5071385;28;20277;-84
2022/01/18 12:19:07;;;;;;;7.68;2.58;;;8.80;99.90;;;;;;5072444;28;20200;-84
2022/01/18 12:21:43;;;;;;;6.63;2.80;;;8.60;99.90;;;;;;5073571;28;20235;-85
2022/01/18 12:24:46;;;;;;;7.75;2.72;;;8.10;99.90;;;;;;5072923;28;20216;-85
2022/01/18 12:27:29;;;;;;;3.72;2.40;;;7.60;99.90;;;;;;5011626;28;20213;-85
2022/01/18 12:30:39;;;;;;;6.82;2.70;;;7.50;99.90;;;;;;5066974;28;20213;-85
2022/01/18 12:33:18;;;;;;;3.30;2.22;;;7.90;99.90;;;;;;5062030;28;20229;-86
2022/01/18 12:35:47;;;;;;;2.80;2.28;;;8.60;99.90;;;;;;5073245;28;20236;-83
2022/01/18 12:38:22;;;;;;;4.45;2.72;;;8.90;99.90;;;;;;5073609;28;20240;-82
2022/01/18 12:40:53;;;;;;;4.28;2.63;;;9.50;99.90;;;;;;5063345;28;20215;-86
2022/01/18 12:46:16;;;;;;;3.47;2.45;;;9.70;97.20;;;;;;5082392;28;20200;-80
2022/01/18 12:48:48;;;;;;;3.60;2.45;;;9.60;96.90;;;;;;5080541;28;20221;-82
2022/01/18 12:51:17;;;;;;;3.08;2.42;;;10.00;96.70;;;;;;5076318;28;20197;-81
2022/01/18 12:53:49;;;;;;;6.07;3.17;;;10.00;97.10;;;;;;5075862;28;20217;-82
2022/01/18 12:56:17;;;;;;;5.22;2.78;;;10.00;96.60;;;;;;5075851;28;20276;-82
2022/01/18 12:58:48;;;;;;;4.00;2.30;;;10.20;96.20;;;;;;5075632;28;20225;-82
2022/01/18 13:01:19;;;;;;;3.70;2.20;;;10.30;94.00;;;;;;5076244;28;20234;-82
2022/01/18 13:03:53;;;;;;;3.78;2.30;;;10.10;94.20;;;;;;5056632;28;20197;-82
2022/01/18 13:06:25;;;;;;;4.15;2.70;;;9.90;95.30;;;;;;5076141;28;20224;-82
2022/01/18 13:08:57;;;;;;;8.95;2.45;;;10.10;93.90;;;;;;5075827;28;20208;-82
2022/01/18 13:11:26;;;;;;;4.32;2.17;;;10.00;93.60;;;;;;5076417;28;20201;-82
2022/01/18 13:14:01;;;;;;;4.72;2.63;;;9.60;93.40;;;;;;5075872;28;20252;-83
2022/01/18 13:27:44;;;;;;;3.58;2.45;;;9.00;95.10;;;;;;5065832;28;20209;-82
2022/01/18 13:30:18;;;;;;;4.43;2.38;;;8.80;95.30;;;;;;5075554;28;20288;-82
2022/01/18 13:32:48;;;;;;;4.68;2.60;;;9.00;95.20;;;;;;5075689;28;20312;-82
2022/01/18 13:35:24;;;;;;;2.92;2.38;;;9.00;96.10;;;;;;5075383;28;20251;-82
2022/01/18 13:37:55;;;;;;;4.80;2.20;;;9.00;94.90;;;;;;5075023;28;20251;-82
2022/01/18 13:40:25;;;;;;;5.57;2.25;;;8.70;94.70;;;;;;5075039;28;20260;-83
2022/01/18 13:43:04;;;;;;;10.55;2.28;;;8.30;95.60;;;;;;5075725;28;20276;-81
2022/01/18 13:45:32;;;;;;;8.00;3.00;;;7.70;94.90;;;;;;5075445;28;20240;-82
2022/01/18 13:48:06;;;;;;;6.20;2.88;;;7.80;95.50;;;;;;5072319;28;20206;-82
2022/01/18 13:50:50;;;;;;;5.97;2.55;;;7.60;96.10;;;;;;5076460;28;20197;-83
2022/01/18 13:53:21;;;;;;;14.98;2.70;;;7.50;98.60;;;;;;5074326;28;20228;-83
2022/01/18 13:55:53;;;;;;;5.93;2.78;;;7.30;96.70;;;;;;5063996;28;20225;-84
2022/01/18 13:58:23;;;;;;;3.90;2.50;;;7.00;97.90;;;;;;5075792;28;20262;-82
2022/01/18 14:00:53;;;;;;;39.65;3.17;;;7.00;98.20;;;;;;5075709;28;20216;-82
2022/01/18 14:03:33;;;;;;;8.88;2.53;;;6.80;99.30;;;;;;5075594;28;20194;-82
2022/01/18 14:06:03;;;;;;;4.43;2.55;;;6.70;98.30;;;;;;5075755;28;20221;-82
2022/01/18 14:08:33;;;;;;;7.35;2.47;;;6.50;98.70;;;;;;5075419;28;20261;-82
2022/01/18 14:11:05;;;;;;;4.55;2.30;;;6.10;99.20;;;;;;5074375;28;20201;-82
2022/01/18 14:13:36;;;;;;;3.58;2.10;;;6.00;99.80;;;;;;5083238;28;20280;-83
2022/01/18 14:16:20;;;;;;;5.38;2.22;;;5.80;99.90;;;;;;5074422;28;20221;-82
2022/01/18 14:19:00;;;;;;;5.93;2.47;;;5.80;99.90;;;;;;5074786;28;20209;-83
2022/01/18 14:21:33;;;;;;;4.20;2.72;;;5.80;99.90;;;;;;5074859;28;20209;-83
2022/01/18 14:24:11;;;;;;;4.38;2.25;;;5.70;99.90;;;;;;5074713;28;20280;-82
2022/01/18 14:26:41;;;;;;;26.77;3.47;;;5.80;99.90;;;;;;5075351;28;20197;-83
2022/01/18 14:29:10;;;;;;;6.43;2.63;;;5.80;99.90;;;;;;5074478;28;20280;-83